sensor_id;sensor_type;location;lat;lon;timestamp;pressure;altitude;pressure_sealevel;temperature;humidity
77662;BME280;69666;52.136;5.424;2023-05-07T00:00:18;101783.09;;;15.78;92.79
77662;BME280;69666;52.136;5.424;2023-05-07T00:02:46;101790.50;;;15.71;93.39
77662;BME280;69666;52.136;5.424;2023-05-07T00:05:13;101790.47;;;15.73;93.46
77662;BME280;69666;52.136;5.424;2023-05-07T00:07:40;101794.19;;;15.68;93.56
77662;BME280;69666;52.136;5.424;2023-05-07T00:10:07;101800.69;;;15.63;93.58
77662;BME280;69666;52.136;5.424;2023-05-07T00:12:35;101793.56;;;15.62;93.52
77662;BME280;69666;52.136;5.424;2023-05-07T00:15:02;101793.78;;;15.57;93.98
77662;BME280;69666;52.136;5.424;2023-05-07T00:17:29;101796.56;;;15.54;94.06
77662;BME280;69666;52.136;5.424;2023-05-07T00:19:56;101791.22;;;15.53;94.30
77662;BME280;69666;52.136;5.424;2023-05-07T00:22:23;101789.53;;;15.50;93.93
77662;BME280;69666;52.136;5.424;2023-05-07T00:24:49;101792.25;;;15.49;94.27
77662;BME280;69666;52.136;5.424;2023-05-07T00:27:16;101787.81;;;15.48;94.44
77662;BME280;69666;52.136;5.424;2023-05-07T00:29:42;101784.34;;;15.46;94.21
77662;BME280;69666;52.136;5.424;2023-05-07T00:32:09;101786.28;;;15.42;93.88
77662;BME280;69666;52.136;5.424;2023-05-07T00:34:36;101790.88;;;15.39;93.85
77662;BME280;69666;52.136;5.424;2023-05-07T00:37:02;101789.94;;;15.40;94.13
77662;BME280;69666;52.136;5.424;2023-05-07T00:39:32;101785.66;;;15.36;94.62
77662;BME280;69666;52.136;5.424;2023-05-07T00:41:58;101783.81;;;15.36;93.56
77662;BME280;69666;52.136;5.424;2023-05-07T00:44:25;101783.91;;;15.34;93.99
77662;BME280;69666;52.136;5.424;2023-05-07T00:46:53;101777.78;;;15.31;94.10
77662;BME280;69666;52.136;5.424;2023-05-07T00:49:20;101774.25;;;15.29;94.29
77662;BME280;69666;52.136;5.424;2023-05-07T00:51:47;101772.47;;;15.29;94.23
77662;BME280;69666;52.136;5.424;2023-05-07T00:54:14;101766.31;;;15.26;94.63
77662;BME280;69666;52.136;5.424;2023-05-07T00:56:41;101773.50;;;15.25;94.81
77662;BME280;69666;52.136;5.424;2023-05-07T00:59:08;101770.91;;;15.24;94.61
77662;BME280;69666;52.136;5.424;2023-05-07T01:01:34;101765.44;;;15.25;94.80
77662;BME280;69666;52.136;5.424;2023-05-07T01:04:01;101774.50;;;15.23;94.85
77662;BME280;69666;52.136;5.424;2023-05-07T01:06:29;101768.28;;;15.22;95.45
77662;BME280;69666;52.136;5.424;2023-05-07T01:08:58;101766.47;;;15.23;95.20
77662;BME280;69666;52.136;5.424;2023-05-07T01:11:26;101769.22;;;15.21;95.50
77662;BME280;69666;52.136;5.424;2023-05-07T01:13:53;101764.78;;;15.20;94.74
77662;BME280;69666;52.136;5.424;2023-05-07T01:16:20;101767.41;;;15.22;95.20
77662;BME280;69666;52.136;5.424;2023-05-07T01:18:47;101762.97;;;15.21;95.21
77662;BME280;69666;52.136;5.424;2023-05-07T01:21:17;101763.03;;;15.19;95.26
77662;BME280;69666;52.136;5.424;2023-05-07T01:23:45;101768.34;;;15.21;95.49
77662;BME280;69666;52.136;5.424;2023-05-07T01:26:12;101765.75;;;15.18;95.64
77662;BME280;69666;52.136;5.424;2023-05-07T01:28:39;101768.44;;;15.18;95.65
77662;BME280;69666;52.136;5.424;2023-05-07T01:31:07;101767.63;;;15.16;96.15
77662;BME280;69666;52.136;5.424;2023-05-07T01:33:37;101769.56;;;15.12;95.86
77662;BME280;69666;52.136;5.424;2023-05-07T01:36:04;101774.88;;;15.14;95.49
77662;BME280;69666;52.136;5.424;2023-05-07T01:38:33;101775.84;;;15.11;96.09
77662;BME280;69666;52.136;5.424;2023-05-07T01:41:00;101774.22;;;15.07;96.80
77662;BME280;69666;52.136;5.424;2023-05-07T01:43:28;101766.22;;;15.06;96.53
77662;BME280;69666;52.136;5.424;2023-05-07T01:45:57;101767.09;;;15.06;96.46
77662;BME280;69666;52.136;5.424;2023-05-07T01:48:24;101766.22;;;15.06;96.43
77662;BME280;69666;52.136;5.424;2023-05-07T01:50:51;101767.97;;;15.07;96.30
77662;BME280;69666;52.136;5.424;2023-05-07T01:53:18;101770.66;;;15.07;96.37
77662;BME280;69666;52.136;5.424;2023-05-07T01:55:44;101774.31;;;15.04;96.49
77662;BME280;69666;52.136;5.424;2023-05-07T01:58:11;101766.22;;;15.06;96.50
77662;BME280;69666;52.136;5.424;2023-05-07T02:00:38;101769.81;;;15.05;96.84
77662;BME280;69666;52.136;5.424;2023-05-07T02:03:04;101766.22;;;15.06;96.61
77662;BME280;69666;52.136;5.424;2023-05-07T02:05:31;101774.22;;;15.07;96.56
77662;BME280;69666;52.136;5.424;2023-05-07T02:07:58;101773.22;;;15.10;96.30
77662;BME280;69666;52.136;5.424;2023-05-07T02:10:25;101769.66;;;15.09;96.69
77662;BME280;69666;52.136;5.424;2023-05-07T02:12:51;101771.47;;;15.09;96.99
77662;BME280;69666;52.136;5.424;2023-05-07T02:15:18;101773.22;;;15.10;96.95
77662;BME280;69666;52.136;5.424;2023-05-07T02:18:05;101773.22;;;15.10;97.27
77662;BME280;69666;52.136;5.424;2023-05-07T02:20:38;101773.22;;;15.10;96.78
77662;BME280;69666;52.136;5.424;2023-05-07T02:23:04;101770.59;;;15.08;96.95
77662;BME280;69666;52.136;5.424;2023-05-07T02:25:31;101763.47;;;15.07;97.32
77662;BME280;69666;52.136;5.424;2023-05-07T02:27:57;101763.53;;;15.06;96.96
77662;BME280;69666;52.136;5.424;2023-05-07T02:30:25;101759.94;;;15.07;97.23
77662;BME280;69666;52.136;5.424;2023-05-07T02:32:52;101767.91;;;15.08;97.13
77662;BME280;69666;52.136;5.424;2023-05-07T02:35:18;101769.72;;;15.08;97.58
77662;BME280;69666;52.136;5.424;2023-05-07T02:37:45;101769.72;;;15.08;97.09
77662;BME280;69666;52.136;5.424;2023-05-07T02:40:12;101767.91;;;15.08;96.98
77662;BME280;69666;52.136;5.424;2023-05-07T02:42:39;101767.91;;;15.08;96.97
77662;BME280;69666;52.136;5.424;2023-05-07T02:45:06;101768.75;;;15.10;96.97
77662;BME280;69666;52.136;5.424;2023-05-07T02:47:32;101768.75;;;15.10;97.33
77662;BME280;69666;52.136;5.424;2023-05-07T02:49:59;101762.50;;;15.10;97.61
77662;BME280;69666;52.136;5.424;2023-05-07T02:52:26;101758.00;;;15.10;96.99
77662;BME280;69666;52.136;5.424;2023-05-07T02:54:52;101755.28;;;15.12;96.94
77662;BME280;69666;52.136;5.424;2023-05-07T02:57:19;101757.03;;;15.13;96.27
77662;BME280;69666;52.136;5.424;2023-05-07T02:59:46;101756.22;;;15.11;95.91
77662;BME280;69666;52.136;5.424;2023-05-07T03:02:12;101756.16;;;15.12;96.28
77662;BME280;69666;52.136;5.424;2023-05-07T03:04:39;101757.09;;;15.11;96.85
77662;BME280;69666;52.136;5.424;2023-05-07T03:07:06;101762.41;;;15.13;96.87
77662;BME280;69666;52.136;5.424;2023-05-07T03:09:33;101769.66;;;15.09;97.50
77662;BME280;69666;52.136;5.424;2023-05-07T03:11:59;101767.00;;;15.09;97.51
77662;BME280;69666;52.136;5.424;2023-05-07T03:14:26;101764.31;;;15.09;97.58
77662;BME280;69666;52.136;5.424;2023-05-07T03:16:52;101765.22;;;15.08;97.16
77662;BME280;69666;52.136;5.424;2023-05-07T03:19:19;101761.69;;;15.08;97.00
77662;BME280;69666;52.136;5.424;2023-05-07T03:21:46;101760.81;;;15.07;97.44
77662;BME280;69666;52.136;5.424;2023-05-07T03:24:12;101754.63;;;15.05;97.09
77662;BME280;69666;52.136;5.424;2023-05-07T03:26:40;101759.19;;;15.03;97.06
77662;BME280;69666;52.136;5.424;2023-05-07T03:29:07;101755.63;;;15.03;97.02
77662;BME280;69666;52.136;5.424;2023-05-07T03:31:33;101754.75;;;15.02;96.93
77662;BME280;69666;52.136;5.424;2023-05-07T03:34:00;101757.50;;;15.01;96.93
77662;BME280;69666;52.136;5.424;2023-05-07T03:36:27;101760.28;;;14.97;97.13
77662;BME280;69666;52.136;5.424;2023-05-07T03:38:53;101756.72;;;14.97;97.24
77662;BME280;69666;52.136;5.424;2023-05-07T03:41:20;101754.09;;;14.95;97.36
77662;BME280;69666;52.136;5.424;2023-05-07T03:43:47;101755.94;;;14.93;97.54
77662;BME280;69666;52.136;5.424;2023-05-07T03:46:13;101764.97;;;14.92;97.54
77662;BME280;69666;52.136;5.424;2023-05-07T03:48:40;101768.56;;;14.91;97.42
77662;BME280;69666;52.136;5.424;2023-05-07T03:51:07;101765.06;;;14.89;97.04
77662;BME280;69666;52.136;5.424;2023-05-07T03:53:34;101763.19;;;14.91;97.23
77662;BME280;69666;52.136;5.424;2023-05-07T03:56:01;101765.94;;;14.90;97.63
77662;BME280;69666;52.136;5.424;2023-05-07T03:58:27;101766.00;;;14.88;97.72
77662;BME280;69666;52.136;5.424;2023-05-07T04:00:54;101765.00;;;14.91;97.90
77662;BME280;69666;52.136;5.424;2023-05-07T04:03:20;101764.97;;;14.92;96.95
77662;BME280;69666;52.136;5.424;2023-05-07T04:05:47;101775.72;;;14.91;97.67
77662;BME280;69666;52.136;5.424;2023-05-07T04:08:14;101773.97;;;14.90;97.63
77662;BME280;69666;52.136;5.424;2023-05-07T04:10:41;101777.53;;;14.90;97.56
77662;BME280;69666;52.136;5.424;2023-05-07T04:13:08;101782.03;;;14.90;97.66
77662;BME280;69666;52.136;5.424;2023-05-07T04:15:35;101779.34;;;14.90;97.28
77662;BME280;69666;52.136;5.424;2023-05-07T04:18:02;101782.03;;;14.90;97.72
77662;BME280;69666;52.136;5.424;2023-05-07T04:20:29;101775.78;;;14.89;97.78
77662;BME280;69666;52.136;5.424;2023-05-07T04:22:55;101781.13;;;14.89;97.49
77662;BME280;69666;52.136;5.424;2023-05-07T04:25:22;101784.66;;;14.91;97.23
77662;BME280;69666;52.136;5.424;2023-05-07T04:27:53;101781.88;;;14.93;97.10
77662;BME280;69666;52.136;5.424;2023-05-07T04:30:23;101784.56;;;14.93;97.32
77662;BME280;69666;52.136;5.424;2023-05-07T04:32:50;101784.50;;;14.94;97.49
77662;BME280;69666;52.136;5.424;2023-05-07T04:35:16;101788.94;;;14.95;97.12
77662;BME280;69666;52.136;5.424;2023-05-07T04:37:43;101786.25;;;14.95;98.01
77662;BME280;69666;52.136;5.424;2023-05-07T04:40:11;101784.50;;;14.94;97.20
77662;BME280;69666;52.136;5.424;2023-05-07T04:42:39;101782.66;;;14.96;97.83
77662;BME280;69666;52.136;5.424;2023-05-07T04:45:06;101782.69;;;14.95;98.01
77662;BME280;69666;52.136;5.424;2023-05-07T04:47:32;101789.75;;;14.97;97.65
77662;BME280;69666;52.136;5.424;2023-05-07T04:49:59;101786.22;;;14.97;96.92
77662;BME280;69666;52.136;5.424;2023-05-07T04:52:25;101788.00;;;14.96;97.37
77662;BME280;69666;52.136;5.424;2023-05-07T04:54:53;101790.69;;;14.96;97.07
77662;BME280;69666;52.136;5.424;2023-05-07T04:57:19;101789.75;;;14.97;96.78
77662;BME280;69666;52.136;5.424;2023-05-07T04:59:46;101794.19;;;14.98;96.58
77662;BME280;69666;52.136;5.424;2023-05-07T05:02:14;101796.06;;;14.96;97.32
77662;BME280;69666;52.136;5.424;2023-05-07T05:04:41;101800.47;;;14.97;97.34
77662;BME280;69666;52.136;5.424;2023-05-07T05:07:08;101800.47;;;14.97;97.44
77662;BME280;69666;52.136;5.424;2023-05-07T05:09:34;101801.31;;;15.00;96.97
77662;BME280;69666;52.136;5.424;2023-05-07T05:12:01;101803.06;;;15.01;96.60
77662;BME280;69666;52.136;5.424;2023-05-07T05:14:27;101798.56;;;15.01;97.13
77662;BME280;69666;52.136;5.424;2023-05-07T05:16:54;101799.44;;;15.02;96.39
77662;BME280;69666;52.136;5.424;2023-05-07T05:19:20;101807.50;;;15.02;96.93
77662;BME280;69666;52.136;5.424;2023-05-07T05:21:47;101803.06;;;15.01;97.27
77662;BME280;69666;52.136;5.424;2023-05-07T05:24:14;101812.84;;;15.02;97.56
77662;BME280;69666;52.136;5.424;2023-05-07T05:26:41;101805.75;;;15.01;96.82
77662;BME280;69666;52.136;5.424;2023-05-07T05:29:08;101802.13;;;15.02;97.23
77662;BME280;69666;52.136;5.424;2023-05-07T05:31:34;101806.56;;;15.03;97.43
77662;BME280;69666;52.136;5.424;2023-05-07T05:34:02;101814.47;;;15.06;97.21
77662;BME280;69666;52.136;5.424;2023-05-07T05:36:29;101817.16;;;15.06;97.56
77662;BME280;69666;52.136;5.424;2023-05-07T05:38:55;101816.31;;;15.04;97.08
77662;BME280;69666;52.136;5.424;2023-05-07T05:41:22;101819.84;;;15.06;97.34
77662;BME280;69666;52.136;5.424;2023-05-07T05:43:48;101829.56;;;15.08;97.33
77662;BME280;69666;52.136;5.424;2023-05-07T05:46:15;101825.97;;;15.09;97.09
77662;BME280;69666;52.136;5.424;2023-05-07T05:48:41;101828.59;;;15.11;97.21
77662;BME280;69666;52.136;5.424;2023-05-07T05:51:08;101834.69;;;15.14;96.65
77662;BME280;69666;52.136;5.424;2023-05-07T05:53:35;101835.56;;;15.15;96.79
77662;BME280;69666;52.136;5.424;2023-05-07T05:56:01;101832.75;;;15.19;97.06
77662;BME280;69666;52.136;5.424;2023-05-07T05:58:28;101842.53;;;15.20;97.63
77662;BME280;69666;52.136;5.424;2023-05-07T06:00:55;101840.69;;;15.22;96.43
77662;BME280;69666;52.136;5.424;2023-05-07T06:03:22;101840.63;;;15.24;96.99
77662;BME280;69666;52.136;5.424;2023-05-07T06:05:49;101848.66;;;15.24;97.29
77662;BME280;69666;52.136;5.424;2023-05-07T06:08:15;101849.41;;;15.27;96.88
77662;BME280;69666;52.136;5.424;2023-05-07T06:10:42;101850.19;;;15.31;96.83
77662;BME280;69666;52.136;5.424;2023-05-07T06:13:09;101854.63;;;15.32;96.77
77662;BME280;69666;52.136;5.424;2023-05-07T06:15:35;101850.94;;;15.34;96.55
77662;BME280;69666;52.136;5.424;2023-05-07T06:18:02;101848.28;;;15.34;96.78
77662;BME280;69666;52.136;5.424;2023-05-07T06:20:29;101851.81;;;15.35;96.67
77662;BME280;69666;52.136;5.424;2023-05-07T06:22:56;101850.88;;;15.36;97.41
77662;BME280;69666;52.136;5.424;2023-05-07T06:25:23;101858.84;;;15.38;97.41
77662;BME280;69666;52.136;5.424;2023-05-07T06:27:50;101863.34;;;15.37;97.89
77662;BME280;69666;52.136;5.424;2023-05-07T06:30:16;101861.44;;;15.41;97.42
77662;BME280;69666;52.136;5.424;2023-05-07T06:32:43;101853.38;;;15.41;98.01
77662;BME280;69666;52.136;5.424;2023-05-07T06:35:10;101849.81;;;15.40;98.21
77662;BME280;69666;52.136;5.424;2023-05-07T06:37:36;101859.56;;;15.43;98.31
77662;BME280;69666;52.136;5.424;2023-05-07T06:40:06;101857.78;;;15.43;98.08
77662;BME280;69666;52.136;5.424;2023-05-07T06:42:35;101866.63;;;15.45;97.74
77662;BME280;69666;52.136;5.424;2023-05-07T06:45:01;101859.47;;;15.46;97.75
77662;BME280;69666;52.136;5.424;2023-05-07T06:47:29;101861.19;;;15.47;98.27
77662;BME280;69666;52.136;5.424;2023-05-07T06:49:56;101861.19;;;15.47;96.49
77662;BME280;69666;52.136;5.424;2023-05-07T06:52:22;101855.81;;;15.47;97.83
77662;BME280;69666;52.136;5.424;2023-05-07T06:54:50;101854.00;;;15.47;97.77
77662;BME280;69666;52.136;5.424;2023-05-07T06:57:17;101870.06;;;15.49;97.61
77662;BME280;69666;52.136;5.424;2023-05-07T06:59:43;101857.47;;;15.51;98.06
77662;BME280;69666;52.136;5.424;2023-05-07T07:02:10;101859.16;;;15.53;98.39
77662;BME280;69666;52.136;5.424;2023-05-07T07:04:36;101861.78;;;15.56;98.65
77662;BME280;69666;52.136;5.424;2023-05-07T07:07:05;101865.09;;;15.63;98.19
77662;BME280;69666;52.136;5.424;2023-05-07T07:09:31;101858.53;;;15.70;98.61
77662;BME280;69666;52.136;5.424;2023-05-07T07:11:58;101849.28;;;15.79;98.39
77662;BME280;69666;52.136;5.424;2023-05-07T07:14:24;101859.50;;;15.91;98.82
77662;BME280;69666;52.136;5.424;2023-05-07T07:16:51;101854.66;;;16.00;97.59
77662;BME280;69666;52.136;5.424;2023-05-07T07:19:18;101865.03;;;16.10;98.50
77662;BME280;69666;52.136;5.424;2023-05-07T07:21:44;101856.31;;;16.25;97.93
77662;BME280;69666;52.136;5.424;2023-05-07T07:24:13;101849.44;;;16.39;97.83
77662;BME280;69666;52.136;5.424;2023-05-07T07:26:45;101845.31;;;16.53;96.76
77662;BME280;69666;52.136;5.424;2023-05-07T07:29:11;101847.56;;;16.63;97.06
77662;BME280;69666;52.136;5.424;2023-05-07T07:31:38;101852.56;;;16.72;95.62
77662;BME280;69666;52.136;5.424;2023-05-07T07:34:05;101856.00;;;16.76;95.58
77662;BME280;69666;52.136;5.424;2023-05-07T07:36:31;101853.97;;;16.81;95.90
77662;BME280;69666;52.136;5.424;2023-05-07T07:39:10;101866.19;;;16.88;95.78
77662;BME280;69666;52.136;5.424;2023-05-07T07:41:37;101871.38;;;16.93;95.11
77662;BME280;69666;52.136;5.424;2023-05-07T07:44:03;101857.50;;;17.02;95.06
77662;BME280;69666;52.136;5.424;2023-05-07T07:46:33;101864.69;;;17.01;93.97
77662;BME280;69666;52.136;5.424;2023-05-07T07:49:00;101865.22;;;17.09;93.93
77662;BME280;69666;52.136;5.424;2023-05-07T07:51:26;101864.75;;;17.20;94.00
77662;BME280;69666;52.136;5.424;2023-05-07T07:53:53;101869.56;;;17.32;93.40
77662;BME280;69666;52.136;5.424;2023-05-07T07:56:19;101875.94;;;17.50;93.67
77662;BME280;69666;52.136;5.424;2023-05-07T07:58:47;101872.63;;;17.64;92.95
77662;BME280;69666;52.136;5.424;2023-05-07T08:01:13;101875.84;;;17.72;91.96
77662;BME280;69666;52.136;5.424;2023-05-07T08:03:40;101875.34;;;17.82;92.41
77662;BME280;69666;52.136;5.424;2023-05-07T08:06:07;101870.38;;;17.92;92.79
77662;BME280;69666;52.136;5.424;2023-05-07T08:08:34;101879.47;;;17.90;91.47
77662;BME280;69666;52.136;5.424;2023-05-07T08:11:00;101876.84;;;17.88;91.04
77662;BME280;69666;52.136;5.424;2023-05-07T08:13:27;101879.06;;;17.80;90.72
77662;BME280;69666;52.136;5.424;2023-05-07T08:15:54;101877.50;;;17.74;90.56
77662;BME280;69666;52.136;5.424;2023-05-07T08:18:21;101873.00;;;17.75;90.55
77662;BME280;69666;52.136;5.424;2023-05-07T08:20:49;101880.38;;;17.71;90.80
77662;BME280;69666;52.136;5.424;2023-05-07T08:23:16;101884.94;;;17.69;91.57
77662;BME280;69666;52.136;5.424;2023-05-07T08:25:43;101884.47;;;17.60;92.29
77662;BME280;69666;52.136;5.424;2023-05-07T08:28:09;101882.66;;;17.60;92.53
77662;BME280;69666;52.136;5.424;2023-05-07T08:30:36;101882.03;;;17.53;92.71
77662;BME280;69666;52.136;5.424;2023-05-07T08:33:03;101875.06;;;17.49;93.46
77662;BME280;69666;52.136;5.424;2023-05-07T08:35:30;101876.09;;;17.47;93.38
77662;BME280;69666;52.136;5.424;2023-05-07T08:37:57;101885.28;;;17.41;93.19
77662;BME280;69666;52.136;5.424;2023-05-07T08:40:26;101884.28;;;17.44;93.64
77662;BME280;69666;52.136;5.424;2023-05-07T08:42:53;101889.03;;;17.39;94.03
77662;BME280;69666;52.136;5.424;2023-05-07T08:45:20;101889.09;;;17.37;93.71
77662;BME280;69666;52.136;5.424;2023-05-07T08:47:52;101891.66;;;17.40;94.47
77662;BME280;69666;52.136;5.424;2023-05-07T08:50:22;101889.91;;;17.39;93.68
77662;BME280;69666;52.136;5.424;2023-05-07T08:52:48;101881.91;;;17.38;94.50
77662;BME280;69666;52.136;5.424;2023-05-07T08:55:17;101886.16;;;17.42;95.00
77662;BME280;69666;52.136;5.424;2023-05-07T08:57:44;101885.16;;;17.44;95.70
77662;BME280;69666;52.136;5.424;2023-05-07T09:00:11;101883.09;;;17.51;95.27
77662;BME280;69666;52.136;5.424;2023-05-07T09:02:40;101883.16;;;17.49;94.87
77662;BME280;69666;52.136;5.424;2023-05-07T09:05:07;101891.16;;;17.51;94.91
77662;BME280;69666;52.136;5.424;2023-05-07T09:07:34;101890.34;;;17.49;95.02
77662;BME280;69666;52.136;5.424;2023-05-07T09:10:04;101891.34;;;17.46;94.52
77662;BME280;69666;52.136;5.424;2023-05-07T09:12:39;101888.78;;;17.43;94.65
77662;BME280;69666;52.136;5.424;2023-05-07T09:15:07;101881.91;;;17.38;94.55
77662;BME280;69666;52.136;5.424;2023-05-07T09:17:33;101886.41;;;17.37;94.81
77662;BME280;69666;52.136;5.424;2023-05-07T09:20:04;101883.72;;;17.37;95.36
77662;BME280;69666;52.136;5.424;2023-05-07T09:22:37;101881.91;;;17.38;95.66
77662;BME280;69666;52.136;5.424;2023-05-07T09:25:06;101888.97;;;17.40;95.88
77662;BME280;69666;52.136;5.424;2023-05-07T09:27:33;101885.41;;;17.40;94.38
77662;BME280;69666;52.136;5.424;2023-05-07T09:30:03;101891.72;;;17.39;94.94
77662;BME280;69666;52.136;5.424;2023-05-07T09:32:29;101898.75;;;17.41;96.25
77662;BME280;69666;52.136;5.424;2023-05-07T09:34:58;101889.75;;;17.42;95.82
77662;BME280;69666;52.136;5.424;2023-05-07T09:37:26;101896.88;;;17.43;94.88
77662;BME280;69666;52.136;5.424;2023-05-07T09:39:54;101894.13;;;17.45;94.99
77662;BME280;69666;52.136;5.424;2023-05-07T09:42:24;101891.50;;;17.43;95.46
77662;BME280;69666;52.136;5.424;2023-05-07T09:44:54;101891.34;;;17.46;94.92
77662;BME280;69666;52.136;5.424;2023-05-07T09:47:24;101891.34;;;17.46;94.74
77662;BME280;69666;52.136;5.424;2023-05-07T09:49:56;101896.75;;;17.46;95.05
77662;BME280;69666;52.136;5.424;2023-05-07T09:52:26;101896.88;;;17.43;94.78
77662;BME280;69666;52.136;5.424;2023-05-07T09:55:02;101895.00;;;17.45;93.95
77662;BME280;69666;52.136;5.424;2023-05-07T09:57:30;101904.00;;;17.44;93.72
77662;BME280;69666;52.136;5.424;2023-05-07T09:59:58;101904.00;;;17.44;94.33
77662;BME280;69666;52.136;5.424;2023-05-07T10:02:30;101904.00;;;17.44;93.78
77662;BME280;69666;52.136;5.424;2023-05-07T10:04:57;101900.44;;;17.44;93.51
77662;BME280;69666;52.136;5.424;2023-05-07T10:07:27;101909.06;;;17.52;94.45
77662;BME280;69666;52.136;5.424;2023-05-07T10:09:54;101904.44;;;17.54;94.75
77662;BME280;69666;52.136;5.424;2023-05-07T10:12:21;101909.56;;;17.60;94.70
77662;BME280;69666;52.136;5.424;2023-05-07T10:14:50;101908.38;;;17.67;93.66
77662;BME280;69666;52.136;5.424;2023-05-07T10:17:19;101908.16;;;17.72;93.96
77662;BME280;69666;52.136;5.424;2023-05-07T10:19:46;101909.69;;;17.77;93.57
77662;BME280;69666;52.136;5.424;2023-05-07T10:22:14;101911.38;;;17.80;92.58
77662;BME280;69666;52.136;5.424;2023-05-07T10:24:48;101913.75;;;17.86;92.43
77662;BME280;69666;52.136;5.424;2023-05-07T10:27:20;101916.88;;;17.96;93.05
77662;BME280;69666;52.136;5.424;2023-05-07T10:32:42;101905.00;;;18.18;92.58
77662;BME280;69666;52.136;5.424;2023-05-07T10:35:29;101907.84;;;18.34;93.28
77662;BME280;69666;52.136;5.424;2023-05-07T10:37:59;101910.00;;;18.45;91.65
77662;BME280;69666;52.136;5.424;2023-05-07T10:40:26;101906.69;;;18.57;92.64
77662;BME280;69666;52.136;5.424;2023-05-07T10:43:01;101913.09;;;18.73;91.79
77662;BME280;69666;52.136;5.424;2023-05-07T10:45:28;101903.50;;;18.85;90.81
77662;BME280;69666;52.136;5.424;2023-05-07T10:48:16;101906.22;;;19.02;89.97
77662;BME280;69666;52.136;5.424;2023-05-07T10:51:31;101899.75;;;19.22;88.66
77662;BME280;69666;52.136;5.424;2023-05-07T10:56:39;101899.47;;;19.61;88.04
77662;BME280;69666;52.136;5.424;2023-05-07T11:01:55;101905.41;;;19.83;87.35
77662;BME280;69666;52.136;5.424;2023-05-07T11:04:23;101905.00;;;19.91;87.40
77662;BME280;69666;52.136;5.424;2023-05-07T11:15:08;101908.75;;;20.04;85.99
77662;BME280;69666;52.136;5.424;2023-05-07T11:17:53;101906.69;;;20.09;84.50
77662;BME280;69666;52.136;5.424;2023-05-07T11:20:20;101904.66;;;20.13;85.00
77662;BME280;69666;52.136;5.424;2023-05-07T11:22:48;101905.19;;;20.19;85.70
77662;BME280;69666;52.136;5.424;2023-05-07T11:25:18;101909.63;;;20.20;85.48
77662;BME280;69666;52.136;5.424;2023-05-07T11:27:45;101916.78;;;20.21;85.50
77662;BME280;69666;52.136;5.424;2023-05-07T11:30:18;101915.63;;;20.25;85.83
77662;BME280;69666;52.136;5.424;2023-05-07T11:32:48;101916.19;;;20.32;85.37
77662;BME280;69666;52.136;5.424;2023-05-07T11:35:15;101912.59;;;20.31;85.28
77662;BME280;69666;52.136;5.424;2023-05-07T11:37:45;101911.72;;;20.47;84.85
77662;BME280;69666;52.136;5.424;2023-05-07T11:40:12;101909.56;;;20.53;84.75
77662;BME280;69666;52.136;5.424;2023-05-07T11:42:41;101904.72;;;20.58;84.59
77662;BME280;69666;52.136;5.424;2023-05-07T11:45:09;101904.09;;;20.69;85.40
77662;BME280;69666;52.136;5.424;2023-05-07T11:47:37;101907.22;;;20.77;84.61
77662;BME280;69666;52.136;5.424;2023-05-07T11:50:06;101906.56;;;20.88;84.46
77662;BME280;69666;52.136;5.424;2023-05-07T11:52:34;101902.63;;;20.93;84.00
77662;BME280;69666;52.136;5.424;2023-05-07T11:55:02;101901.78;;;20.93;83.92
77662;BME280;69666;52.136;5.424;2023-05-07T11:57:33;101907.66;;;20.99;84.57
77662;BME280;69666;52.136;5.424;2023-05-07T12:00:01;101908.94;;;20.94;82.37
77662;BME280;69666;52.136;5.424;2023-05-07T12:02:32;101909.72;;;20.96;83.13
77662;BME280;69666;52.136;5.424;2023-05-07T12:05:00;101906.72;;;21.00;83.14
77662;BME280;69666;52.136;5.424;2023-05-07T12:07:27;101913.28;;;20.96;82.21
77662;BME280;69666;52.136;5.424;2023-05-07T12:09:53;101902.94;;;21.03;81.60
77662;BME280;69666;52.136;5.424;2023-05-07T12:12:20;101897.84;;;21.12;83.38
77662;BME280;69666;52.136;5.424;2023-05-07T12:14:48;101913.91;;;21.16;81.94
77662;BME280;69666;52.136;5.424;2023-05-07T12:17:16;101903.81;;;21.19;83.20
77662;BME280;69666;52.136;5.424;2023-05-07T12:19:44;101913.28;;;21.26;83.18
77662;BME280;69666;52.136;5.424;2023-05-07T12:22:12;101898.38;;;21.33;82.14
77662;BME280;69666;52.136;5.424;2023-05-07T12:24:49;101905.56;;;21.48;82.49
77662;BME280;69666;52.136;5.424;2023-05-07T12:27:17;101901.13;;;21.62;81.81
77662;BME280;69666;52.136;5.424;2023-05-07T12:29:47;101907.22;;;21.79;82.41
77662;BME280;69666;52.136;5.424;2023-05-07T12:32:19;101900.22;;;21.75;80.11
77662;BME280;69666;52.136;5.424;2023-05-07T12:34:49;101903.13;;;21.86;81.26
77662;BME280;69666;52.136;5.424;2023-05-07T12:37:16;101908.44;;;21.88;80.05
77662;BME280;69666;52.136;5.424;2023-05-07T12:40:06;101900.50;;;21.85;79.44
77662;BME280;69666;52.136;5.424;2023-05-07T12:42:39;101892.59;;;21.82;80.30
77662;BME280;69666;52.136;5.424;2023-05-07T12:45:16;101908.44;;;21.88;79.57
77662;BME280;69666;52.136;5.424;2023-05-07T12:47:44;101901.28;;;21.87;79.29
77662;BME280;69666;52.136;5.424;2023-05-07T12:50:15;101904.03;;;22.01;80.23
77662;BME280;69666;52.136;5.424;2023-05-07T12:52:43;101903.13;;;22.15;80.89
77662;BME280;69666;52.136;5.424;2023-05-07T12:55:14;101912.31;;;22.12;77.17
77662;BME280;69666;52.136;5.424;2023-05-07T12:57:45;101910.22;;;22.03;75.97
77662;BME280;69666;52.136;5.424;2023-05-07T13:00:14;101914.47;;;21.93;75.38
77662;BME280;69666;52.136;5.424;2023-05-07T13:02:42;101915.81;;;21.86;76.22
77662;BME280;69666;52.136;5.424;2023-05-07T13:05:12;101909.72;;;21.82;76.53
77662;BME280;69666;52.136;5.424;2023-05-07T13:07:55;101914.66;;;21.90;77.36
77662;BME280;69666;52.136;5.424;2023-05-07T13:10:22;101910.66;;;21.96;78.02